Time;durP1;ratioP1;P1;durP2;ratioP2;P2;SDS_P1;SDS_P2;PMS_P1;PMS_P2;Temp;Humidity;BMP_temperature;BMP_pressure;BME280_temperature;BME280_humidity;BME280_pressure;Samples;Min_cycle;Max_cycle;Signal;HPM_P1;HPM_P2
2021/01/25 05:02:38;;;;;;;;;;;1.00;99.90;;;;;;5058061;22;19974;-64
2021/01/25 05:05:05;;;;;;;;;;;1.10;99.90;;;;;;5057623;28;19920;-62
2021/01/25 05:07:31;;;;;;;;;;;1.10;99.90;;;;;;5058251;28;19967;-64
2021/01/25 05:09:57;;;;;;;;;;;1.10;99.90;;;;;;5057607;28;19921;-65
2021/01/25 05:12:23;;;;;;;;;;;1.20;99.90;;;;;;5057067;28;20329;-64
2021/01/25 05:14:49;;;;;;;;;;;1.20;99.90;;;;;;5057338;28;19920;-65
2021/01/25 05:17:15;;;;;;;;;;;1.20;99.90;;;;;;5057273;28;19927;-64
2021/01/25 05:19:44;;;;;;;;;;;1.20;99.90;;;;;;5057334;28;20398;-65
2021/01/25 05:22:13;;;;;;;;;;;1.20;99.90;;;;;;5056970;28;19927;-64
2021/01/25 05:24:43;;;;;;;;;;;1.20;99.90;;;;;;5057209;28;19927;-65
2021/01/25 05:27:09;;;;;;;;;;;1.10;99.90;;;;;;5057093;28;19925;-63
2021/01/25 05:29:35;;;;;;;;;;;1.10;99.90;;;;;;5057480;28;19925;-63
2021/01/25 05:32:01;;;;;;;;;;;1.10;99.90;;;;;;5064620;28;19921;-64
2021/01/25 05:34:27;;;;;;;;;;;1.10;99.90;;;;;;5057315;28;19921;-65
2021/01/25 05:36:54;;;;;;;;;;;1.10;99.90;;;;;;5056916;28;19931;-65
2021/01/25 05:39:20;;;;;;;;;;;1.10;99.90;;;;;;5056932;28;19928;-63
2021/01/25 05:41:53;;;;;;;;;;;1.10;99.90;;;;;;5056823;28;19921;-64
2021/01/25 05:44:19;;;;;;;;;;;1.10;99.90;;;;;;5056724;28;19920;-63
2021/01/25 05:46:45;;;;;;;;;;;1.10;99.90;;;;;;5056881;28;19927;-64
2021/01/25 05:49:11;;;;;;;;;;;1.00;99.90;;;;;;5056690;28;19921;-63
2021/01/25 05:51:39;;;;;;;;;;;1.00;99.90;;;;;;5056974;28;19928;-63
2021/01/25 05:54:06;;;;;;;;;;;1.00;99.90;;;;;;5056726;28;19921;-64
2021/01/25 05:56:32;;;;;;;;;;;1.00;99.90;;;;;;5056726;28;19925;-65
2021/01/25 05:58:58;;;;;;;;;;;1.10;99.90;;;;;;5056227;28;19921;-62
2021/01/25 06:01:24;;;;;;;;;;;1.10;99.90;;;;;;5055663;28;19939;-64
2021/01/25 06:03:51;;;;;;;;;;;1.10;99.90;;;;;;5055846;28;20312;-62
2021/01/25 06:06:20;;;;;;;;;;;1.20;99.90;;;;;;5055452;28;19971;-62
2021/01/25 06:08:51;;;;;;;;;;;1.20;99.90;;;;;;5056084;28;19928;-64
2021/01/25 06:11:20;;;;;;;;;;;1.20;99.90;;;;;;5056232;28;19944;-63
2021/01/25 06:13:53;;;;;;;;;;;1.20;99.90;;;;;;5056679;28;20011;-62
2021/01/25 06:16:20;;;;;;;;;;;1.10;99.90;;;;;;5055989;28;20371;-62
2021/01/25 06:18:46;;;;;;;;;;;1.10;99.90;;;;;;5056097;28;19970;-63
2021/01/25 06:21:14;;;;;;;;;;;1.10;99.90;;;;;;5056140;28;19928;-64
2021/01/25 06:23:41;;;;;;;;;;;1.00;99.90;;;;;;5056992;28;20375;-62
2021/01/25 06:26:07;;;;;;;;;;;1.00;99.90;;;;;;5059692;28;19920;-62
2021/01/25 06:28:35;;;;;;;;;;;1.00;99.90;;;;;;5057406;28;19928;-63
2021/01/25 06:31:01;;;;;;;;;;;1.00;99.90;;;;;;5055530;28;19920;-62
2021/01/25 06:33:27;;;;;;;;;;;1.00;99.90;;;;;;5055985;28;19920;-64
2021/01/25 06:35:53;;;;;;;;;;;1.00;99.90;;;;;;5056296;28;19998;-63
2021/01/25 06:38:20;;;;;;;;;;;1.00;99.90;;;;;;5056887;28;19921;-63
2021/01/25 06:40:47;;;;;;;;;;;1.00;99.90;;;;;;5055683;28;19921;-63
2021/01/25 06:43:14;;;;;;;;;;;0.90;99.90;;;;;;5055500;28;19925;-62
2021/01/25 06:45:43;;;;;;;;;;;1.00;99.90;;;;;;5054989;28;20367;-63
2021/01/25 06:48:11;;;;;;;;;;;1.00;99.90;;;;;;5055679;28;20423;-64
2021/01/25 06:50:37;;;;;;;;;;;1.00;99.90;;;;;;5055365;28;19921;-63
2021/01/25 06:53:03;;;;;;;;;;;0.90;99.90;;;;;;5056117;28;19920;-64
2021/01/25 06:55:32;;;;;;;;;;;0.90;99.90;;;;;;5055138;28;19928;-64
2021/01/25 06:58:03;;;;;;;;;;;0.90;99.90;;;;;;5054976;28;19920;-64
2021/01/25 07:00:32;;;;;;;;;;;1.00;99.90;;;;;;5054918;28;19928;-62
2021/01/25 07:02:59;;;;;;;;;;;1.10;99.90;;;;;;5055313;28;19920;-64
2021/01/25 07:05:26;;;;;;;;;;;1.10;99.90;;;;;;5055529;28;19924;-65
2021/01/25 07:08:12;;;;;;;;;;;1.00;99.90;;;;;;5055361;28;19994;-63
2021/01/25 07:10:47;;;;;;;;;;;1.00;99.90;;;;;;5054912;28;19927;-64
2021/01/25 07:13:13;;;;;;;;;;;1.00;99.90;;;;;;5055180;28;19931;-63
2021/01/25 07:15:39;;;;;;;;;;;1.00;99.90;;;;;;5055188;28;19921;-63
2021/01/25 07:18:06;;;;;;;;;;;1.00;99.90;;;;;;5055172;28;19920;-62
2021/01/25 07:20:32;;;;;;;;;;;1.00;99.90;;;;;;5055110;28;19960;-63
2021/01/25 07:22:59;;;;;;;;;;;1.00;99.90;;;;;;5054878;28;19921;-62
2021/01/25 07:25:27;;;;;;;;;;;1.10;99.90;;;;;;5055636;28;19921;-64
2021/01/25 07:28:00;;;;;;;;;;;1.20;99.90;;;;;;5054873;28;19921;-63
2021/01/25 07:30:29;;;;;;;;;;;1.80;99.90;;;;;;5054981;28;19970;-63
2021/01/25 07:32:55;;;;;;;;;;;2.20;99.90;;;;;;5054886;28;19920;-63
2021/01/25 07:35:26;;;;;;;;;;;2.70;99.90;;;;;;5055343;28;19947;-63
2021/01/25 07:37:52;;;;;;;;;;;2.90;99.90;;;;;;5055224;28;19924;-62
2021/01/25 07:40:21;;;;;;;;;;;2.90;99.90;;;;;;5054927;28;19925;-63
2021/01/25 07:42:47;;;;;;;;;;;3.00;99.90;;;;;;5054441;28;19921;-63
2021/01/25 07:45:14;;;;;;;;;;;3.00;99.90;;;;;;5055003;28;20333;-63
2021/01/25 07:47:44;;;;;;;;;;;2.80;99.90;;;;;;5055927;28;19920;-64
2021/01/25 07:50:10;;;;;;;;;;;2.80;99.90;;;;;;5057220;28;19966;-63
2021/01/25 07:52:37;;;;;;;;;;;2.70;99.90;;;;;;5056588;28;19921;-64
2021/01/25 07:55:09;;;;;;;;;;;2.70;99.90;;;;;;5055224;28;20291;-63
2021/01/25 07:57:35;;;;;;;;;;;2.60;99.90;;;;;;5054820;28;20290;-63
2021/01/25 08:00:12;;;;;;;;;;;2.60;99.90;;;;;;5056014;28;19950;-63
2021/01/25 08:02:38;;;;;;;;;;;2.60;99.90;;;;;;5054782;28;19920;-64
2021/01/25 08:05:06;;;;;;;;;;;2.60;99.90;;;;;;5054464;28;19927;-64
2021/01/25 08:07:32;;;;;;;;;;;2.50;99.90;;;;;;5054778;28;19921;-63
2021/01/25 08:09:59;;;;;;;;;;;2.40;99.90;;;;;;5054386;28;19920;-63
2021/01/25 08:12:25;;;;;;;;;;;2.40;99.90;;;;;;5054286;28;19928;-63
2021/01/25 08:14:59;;;;;;;;;;;2.50;99.90;;;;;;5054210;28;19925;-63
2021/01/25 08:17:29;;;;;;;;;;;2.30;99.90;;;;;;5054178;28;19921;-63
2021/01/25 08:19:58;;;;;;;;;;;2.30;99.90;;;;;;5054109;28;19955;-63
2021/01/25 08:22:25;;;;;;;;;;;2.30;99.90;;;;;;5053848;28;19921;-65
2021/01/25 08:24:52;;;;;;;;;;;2.30;99.90;;;;;;5053911;28;20390;-64
2021/01/25 08:27:18;;;;;;;;;;;2.20;99.90;;;;;;5053975;28;19970;-62
2021/01/25 08:29:46;;;;;;;;;;;2.20;99.90;;;;;;5057428;28;19920;-62
2021/01/25 08:32:14;;;;;;;;;;;2.20;99.90;;;;;;5057912;28;19921;-64
2021/01/25 08:34:41;;;;;;;;;;;2.30;99.90;;;;;;5057697;28;19932;-63
2021/01/25 08:37:09;;;;;;;;;;;2.30;99.90;;;;;;5057791;28;19924;-63
2021/01/25 08:39:39;;;;;;;;;;;2.20;99.90;;;;;;5057791;28;19951;-65
2021/01/25 08:42:11;;;;;;;;;;;2.20;99.90;;;;;;5057863;28;19927;-64
2021/01/25 08:44:42;;;;;;;;;;;2.30;99.90;;;;;;5057520;28;19921;-63
2021/01/25 08:47:09;;;;;;;;;;;2.30;99.90;;;;;;5057702;28;19921;-64
2021/01/25 08:49:38;;;;;;;;;;;2.40;99.90;;;;;;5057600;28;19921;-63
2021/01/25 08:52:04;;;;;;;;;;;2.40;99.90;;;;;;5057732;28;19921;-64
2021/01/25 08:54:32;;;;;;;;;;;2.40;99.90;;;;;;5057569;28;19939;-63
2021/01/25 08:56:58;;;;;;;;;;;2.40;99.90;;;;;;5057850;28;20011;-63
2021/01/25 08:59:29;;;;;;;;;;;2.40;99.90;;;;;;5057747;28;19920;-63
2021/01/25 09:01:55;;;;;;;;;;;2.50;99.90;;;;;;5057508;28;19921;-64
2021/01/25 09:04:21;;;;;;;;;;;2.60;99.90;;;;;;5060401;28;19921;-64
2021/01/25 09:06:49;;;;;;;;;;;2.60;99.90;;;;;;5060853;28;19999;-64
2021/01/25 09:09:15;;;;;;;;;;;2.70;99.90;;;;;;5057431;28;19971;-63
2021/01/25 09:11:41;;;;;;;;;;;2.70;99.90;;;;;;5057523;28;19951;-63
2021/01/25 09:14:08;;;;;;;;;;;2.80;99.90;;;;;;5057865;28;19928;-63
2021/01/25 09:16:34;;;;;;;;;;;2.90;99.90;;;;;;5058110;28;20349;-63
2021/01/25 09:19:00;;;;;;;;;;;3.00;99.90;;;;;;5059091;28;19951;-65
2021/01/25 09:21:26;;;;;;;;;;;3.00;99.90;;;;;;5060732;28;19928;-64
2021/01/25 09:23:52;;;;;;;;;;;3.00;99.90;;;;;;5057591;28;20382;-63
2021/01/25 09:26:18;;;;;;;;;;;2.90;99.90;;;;;;5057167;28;19924;-63
2021/01/25 09:28:45;;;;;;;;;;;3.00;99.90;;;;;;5056786;28;20382;-65
2021/01/25 09:31:11;;;;;;;;;;;3.00;99.90;;;;;;5056905;28;19927;-62
2021/01/25 09:33:37;;;;;;;;;;;3.10;99.90;;;;;;5056836;28;19920;-64
2021/01/25 09:36:04;;;;;;;;;;;3.10;99.90;;;;;;5057100;28;19928;-63
2021/01/25 09:38:30;;;;;;;;;;;3.10;99.90;;;;;;5056683;28;19921;-65
2021/01/25 09:40:57;;;;;;;;;;;3.10;99.90;;;;;;5055810;28;19920;-64
2021/01/25 09:43:23;;;;;;;;;;;3.10;99.90;;;;;;5056955;28;19928;-64
2021/01/25 09:45:50;;;;;;;;;;;3.00;99.90;;;;;;5056929;28;19921;-64
2021/01/25 09:48:16;;;;;;;;;;;3.10;99.90;;;;;;5056702;28;19966;-64
2021/01/25 09:50:43;;;;;;;;;;;3.00;99.90;;;;;;5056422;28;20375;-64
2021/01/25 09:53:09;;;;;;;;;;;3.10;99.90;;;;;;5056628;28;20302;-63
2021/01/25 09:55:35;;;;;;;;;;;3.20;99.90;;;;;;5057476;28;19921;-63
2021/01/25 09:58:02;;;;;;;;;;;3.00;99.90;;;;;;5056499;28;20368;-63
2021/01/25 10:00:28;;;;;;;;;;;3.00;99.90;;;;;;5055986;28;19921;-64
2021/01/25 10:02:54;;;;;;;;;;;3.10;99.90;;;;;;5056310;28;19920;-64
2021/01/25 10:05:20;;;;;;;;;;;3.20;99.90;;;;;;5056788;28;19970;-64
2021/01/25 10:07:46;;;;;;;;;;;3.20;99.90;;;;;;5056646;28;20359;-64
2021/01/25 10:10:13;;;;;;;;;;;3.30;99.90;;;;;;5056254;28;19967;-62
2021/01/25 10:12:40;;;;;;;;;;;3.30;99.90;;;;;;5056450;28;20003;-62
2021/01/25 10:15:08;;;;;;;;;;;3.50;99.90;;;;;;5056402;28;19924;-65
2021/01/25 10:17:34;;;;;;;;;;;3.70;99.90;;;;;;5055993;28;19927;-62
2021/01/25 10:20:00;;;;;;;;;;;3.60;99.90;;;;;;5055858;28;19920;-64
2021/01/25 10:22:26;;;;;;;;;;;3.70;99.90;;;;;;5056441;28;19928;-63
2021/01/25 10:24:52;;;;;;;;;;;3.80;99.90;;;;;;5055911;28;19928;-63
2021/01/25 10:27:18;;;;;;;;;;;3.80;99.90;;;;;;5056669;28;19920;-62
2021/01/25 10:29:44;;;;;;;;;;;4.00;99.90;;;;;;5056755;28;19924;-62
2021/01/25 10:32:14;;;;;;;;;;;4.00;99.90;;;;;;5055939;28;19924;-63
2021/01/25 10:34:41;;;;;;;;;;;4.00;99.90;;;;;;5055532;28;19920;-63
2021/01/25 10:37:07;;;;;;;;;;;4.20;99.90;;;;;;5055362;28;19927;-63
2021/01/25 10:39:33;;;;;;;;;;;4.20;99.90;;;;;;5055511;28;19921;-66
2021/01/25 10:41:59;;;;;;;;;;;4.20;99.90;;;;;;5055732;28;19920;-64
2021/01/25 10:44:25;;;;;;;;;;;4.00;99.90;;;;;;5055795;28;19966;-62
2021/01/25 10:46:51;;;;;;;;;;;4.10;99.90;;;;;;5055607;28;19920;-62
2021/01/25 10:49:18;;;;;;;;;;;4.00;99.90;;;;;;5055511;28;19928;-63
2021/01/25 10:51:44;;;;;;;;;;;4.00;99.90;;;;;;5055277;28;20383;-63
2021/01/25 10:54:10;;;;;;;;;;;4.20;99.90;;;;;;5055432;28;19920;-65
2021/01/25 10:56:36;;;;;;;;;;;4.50;99.90;;;;;;5057074;28;19920;-63
2021/01/25 10:59:02;;;;;;;;;;;4.60;99.90;;;;;;5055494;28;19920;-63
2021/01/25 11:01:28;;;;;;;;;;;4.60;99.90;;;;;;5055195;28;19920;-63
2021/01/25 11:03:54;;;;;;;;;;;4.80;99.90;;;;;;5055486;28;19920;-63
2021/01/25 11:06:21;;;;;;;;;;;4.80;99.90;;;;;;5055368;28;19921;-62
2021/01/25 11:08:47;;;;;;;;;;;4.60;99.90;;;;;;5055652;28;20425;-61
2021/01/25 11:11:13;;;;;;;;;;;4.70;99.90;;;;;;5055815;28;20300;-62
2021/01/25 11:13:39;;;;;;;;;;;4.80;99.90;;;;;;5055400;28;19920;-62
2021/01/25 11:16:05;;;;;;;;;;;4.80;99.90;;;;;;5055231;28;19982;-61
2021/01/25 11:18:32;;;;;;;;;;;4.90;99.90;;;;;;5055018;28;19928;-63
2021/01/25 11:20:59;;;;;;;;;;;4.90;99.90;;;;;;5055042;28;19921;-63
2021/01/25 11:23:27;;;;;;;;;;;4.80;99.90;;;;;;5054848;28;19921;-62
2021/01/25 11:25:53;;;;;;;;;;;4.90;99.90;;;;;;5055631;28;20366;-62
2021/01/25 11:28:19;;;;;;;;;;;5.00;99.90;;;;;;5058217;28;20394;-62
2021/01/25 11:30:46;;;;;;;;;;;5.20;99.90;;;;;;5055112;28;19921;-63
2021/01/25 11:33:12;;;;;;;;;;;5.20;99.90;;;;;;5055470;28;19921;-63
2021/01/25 11:35:38;;;;;;;;;;;5.20;99.90;;;;;;5055123;28;19921;-62
2021/01/25 11:38:04;;;;;;;;;;;5.30;99.90;;;;;;5054656;28;20346;-62
2021/01/25 11:40:31;;;;;;;;;;;5.40;99.90;;;;;;5054588;28;20229;-62
2021/01/25 11:42:57;;;;;;;;;;;5.50;99.90;;;;;;5054900;28;20027;-63
2021/01/25 11:45:23;;;;;;;;;;;5.50;99.90;;;;;;5055359;28;20290;-62
2021/01/25 11:47:49;;;;;;;;;;;5.60;99.90;;;;;;5054709;28;20319;-62
2021/01/25 11:50:15;;;;;;;;;;;5.60;99.90;;;;;;5060558;28;19921;-62
2021/01/25 11:52:41;;;;;;;;;;;5.70;99.90;;;;;;5055948;28;19921;-62
2021/01/25 11:55:07;;;;;;;;;;;5.60;99.90;;;;;;5054684;28;19920;-63
2021/01/25 11:57:35;;;;;;;;;;;5.60;99.90;;;;;;5054563;28;20384;-63
2021/01/25 12:00:01;;;;;;;;;;;5.50;99.90;;;;;;5057666;28;20290;-61
2021/01/25 12:02:27;;;;;;;;;;;5.40;99.90;;;;;;5054175;28;20371;-62
2021/01/25 12:04:53;;;;;;;;;;;5.20;99.90;;;;;;5055111;28;19921;-62
2021/01/25 12:07:19;;;;;;;;;;;5.20;99.90;;;;;;5054266;28;19971;-63
2021/01/25 12:09:46;;;;;;;;;;;5.10;99.90;;;;;;5053954;28;20321;-62
2021/01/25 12:12:12;;;;;;;;;;;5.10;99.90;;;;;;5054230;28;19921;-64
2021/01/25 12:14:39;;;;;;;;;;;5.30;99.90;;;;;;5054882;28;19927;-62
2021/01/25 12:17:05;;;;;;;;;;;5.40;99.90;;;;;;5054282;28;20371;-64
2021/01/25 12:19:31;;;;;;;;;;;5.50;99.90;;;;;;5054990;28;19950;-64
2021/01/25 12:21:57;;;;;;;;;;;5.70;99.90;;;;;;5054517;28;19920;-62
2021/01/25 12:24:23;;;;;;;;;;;5.80;99.90;;;;;;5054558;28;19921;-62
2021/01/25 12:26:50;;;;;;;;;;;5.80;99.90;;;;;;5054286;28;19921;-63
2021/01/25 12:29:16;;;;;;;;;;;5.70;99.90;;;;;;5054049;28;20290;-64
2021/01/25 12:31:43;;;;;;;;;;;5.90;99.90;;;;;;5053686;28;19921;-62
2021/01/25 12:34:09;;;;;;;;;;;5.80;99.90;;;;;;5054196;28;20329;-63
2021/01/25 12:36:36;;;;;;;;;;;5.80;99.90;;;;;;5054068;28;19928;-63
2021/01/25 12:39:03;;;;;;;;;;;5.90;99.90;;;;;;5053996;28;19928;-63
2021/01/25 12:41:29;;;;;;;;;;;5.80;99.90;;;;;;5053593;28;19966;-64
2021/01/25 12:43:55;;;;;;;;;;;5.90;99.90;;;;;;5053941;28;19935;-64
2021/01/25 12:46:21;;;;;;;;;;;6.00;99.90;;;;;;5054097;28;19920;-63
2021/01/25 12:48:48;;;;;;;;;;;6.10;99.90;;;;;;5054096;28;19966;-63
2021/01/25 12:51:14;;;;;;;;;;;6.10;99.90;;;;;;5053817;28;19932;-64
2021/01/25 12:53:41;;;;;;;;;;;6.10;99.90;;;;;;5053816;28;20023;-62
2021/01/25 12:56:07;;;;;;;;;;;6.30;99.90;;;;;;5054264;28;19960;-63
2021/01/25 12:58:33;;;;;;;;;;;6.40;99.90;;;;;;5053476;28;19935;-62
2021/01/25 13:00:59;;;;;;;;;;;6.00;99.90;;;;;;5053769;28;19936;-63
2021/01/25 13:03:25;;;;;;;;;;;6.10;99.90;;;;;;5053949;28;19920;-61
2021/01/25 13:05:52;;;;;;;;;;;6.20;99.90;;;;;;5053537;28;19920;-62
2021/01/25 13:08:18;;;;;;;;;;;6.30;99.90;;;;;;5054559;28;19971;-63
2021/01/25 13:10:44;;;;;;;;;;;6.30;99.90;;;;;;5053377;28;20363;-62
2021/01/25 13:13:10;;;;;;;;;;;6.40;99.90;;;;;;5053982;28;19921;-63
2021/01/25 13:15:36;;;;;;;;;;;6.30;99.90;;;;;;5056835;28;20007;-62
2021/01/25 13:18:03;;;;;;;;;;;6.40;99.90;;;;;;5058341;28;19944;-62
2021/01/25 13:20:30;;;;;;;;;;;6.00;99.90;;;;;;5056980;28;19921;-62
2021/01/25 13:22:56;;;;;;;;;;;5.70;99.90;;;;;;5057132;28;20303;-62
2021/01/25 13:25:23;;;;;;;;;;;5.60;99.90;;;;;;5056955;28;19920;-64
2021/01/25 13:27:49;;;;;;;;;;;5.50;99.90;;;;;;5057226;28;19944;-63
2021/01/25 13:30:16;;;;;;;;;;;5.40;99.90;;;;;;5059562;28;19927;-63
2021/01/25 13:32:42;;;;;;;;;;;5.30;99.90;;;;;;5057446;28;19927;-63
2021/01/25 13:35:09;;;;;;;;;;;5.10;99.90;;;;;;5056940;28;19921;-64
2021/01/25 13:37:35;;;;;;;;;;;5.20;99.90;;;;;;5057255;28;19932;-62
2021/01/25 13:40:03;;;;;;;;;;;5.30;99.90;;;;;;5058382;28;19970;-65
2021/01/25 13:42:29;;;;;;;;;;;5.20;99.90;;;;;;5058276;28;20295;-62
2021/01/25 13:44:55;;;;;;;;;;;5.20;99.90;;;;;;5058856;28;19943;-61
2021/01/25 13:47:21;;;;;;;;;;;5.10;99.90;;;;;;5057644;28;19921;-63
2021/01/25 13:49:47;;;;;;;;;;;5.10;99.90;;;;;;5056475;28;20341;-62
2021/01/25 13:52:13;;;;;;;;;;;4.80;99.90;;;;;;5057207;28;20260;-62
2021/01/25 13:54:39;;;;;;;;;;;4.70;99.90;;;;;;5056768;28;20287;-62
2021/01/25 13:57:06;;;;;;;;;;;4.60;99.90;;;;;;5057127;28;19921;-62
2021/01/25 13:59:32;;;;;;;;;;;4.50;99.90;;;;;;5056922;28;19955;-61
2021/01/25 14:01:59;;;;;;;;;;;4.30;99.90;;;;;;5056503;28;19920;-62
2021/01/25 14:04:25;;;;;;;;;;;4.20;99.90;;;;;;5056874;28;19921;-62
2021/01/25 14:06:51;;;;;;;;;;;4.10;99.90;;;;;;5057044;28;19928;-62
2021/01/25 14:09:18;;;;;;;;;;;3.90;99.90;;;;;;5058217;28;19928;-62
2021/01/25 14:11:44;;;;;;;;;;;3.80;99.90;;;;;;5058388;28;20011;-61
2021/01/25 14:14:13;;;;;;;;;;;3.70;99.90;;;;;;5058806;28;19930;-62
2021/01/25 14:16:40;;;;;;;;;;;3.70;99.90;;;;;;5058465;28;20299;-62
2021/01/25 14:19:06;;;;;;;;;;;3.60;99.90;;;;;;5060505;28;19925;-62
2021/01/25 14:21:32;;;;;;;;;;;3.50;99.90;;;;;;5057549;28;19927;-62
2021/01/25 14:23:58;;;;;;;;;;;3.50;99.90;;;;;;5058341;28;19921;-61
2021/01/25 14:26:24;;;;;;;;;;;3.50;99.90;;;;;;5058978;28;19925;-62
2021/01/25 14:28:50;;;;;;;;;;;3.50;99.90;;;;;;5059254;28;19921;-62
2021/01/25 14:31:18;;;;;;;;;;;3.30;99.90;;;;;;5059923;28;19921;-62
2021/01/25 14:33:44;;;;;;;;;;;3.30;99.90;;;;;;5060832;28;19924;-61
2021/01/25 14:36:10;;;;;;;;;;;3.30;99.90;;;;;;5057846;28;20305;-63
2021/01/25 14:38:37;;;;;;;;;;;3.40;99.90;;;;;;5055903;28;22382;-63
2021/01/25 14:41:03;;;;;;;;;;;3.40;99.90;;;;;;5057380;28;19925;-63
2021/01/25 14:43:29;;;;;;;;;;;3.50;99.90;;;;;;5060177;28;19959;-61
2021/01/25 14:45:55;;;;;;;;;;;3.60;99.90;;;;;;5060499;28;19932;-61
2021/01/25 14:48:22;;;;;;;;;;;3.60;99.90;;;;;;5062561;28;19925;-63
2021/01/25 14:50:48;;;;;;;;;;;3.50;99.90;;;;;;5061399;28;19971;-63
2021/01/25 14:53:14;;;;;;;;;;;3.50;99.90;;;;;;5060296;28;19928;-63
2021/01/25 14:55:41;;;;;;;;;;;3.60;99.90;;;;;;5056548;28;20338;-63
2021/01/25 14:58:09;;;;;;;;;;;3.50;99.90;;;;;;5055604;28;19931;-63
2021/01/25 15:00:35;;;;;;;;;;;3.50;99.90;;;;;;5056614;28;20008;-63
2021/01/25 15:03:01;;;;;;;;;;;3.50;99.90;;;;;;5056789;28;19947;-63
2021/01/25 15:05:30;;;;;;;;;;;3.50;99.90;;;;;;5055671;28;19931;-64
2021/01/25 15:07:56;;;;;;;;;;;3.50;99.90;;;;;;5055518;28;19932;-64
2021/01/25 15:10:23;;;;;;;;;;;3.50;99.90;;;;;;5055340;28;19929;-64
2021/01/25 15:12:49;;;;;;;;;;;3.50;99.90;;;;;;5055510;28;19932;-62
2021/01/25 15:15:16;;;;;;;;;;;3.50;99.90;;;;;;5056619;28;19932;-64
2021/01/25 15:17:45;;;;;;;;;;;3.50;99.90;;;;;;5055963;28;19925;-62
2021/01/25 15:20:11;;;;;;;;;;;3.50;99.90;;;;;;5056120;28;19978;-62
2021/01/25 15:22:38;;;;;;;;;;;3.40;99.90;;;;;;5055575;28;19932;-62
2021/01/25 15:25:05;;;;;;;;;;;3.40;99.90;;;;;;5055871;28;19958;-63
2021/01/25 15:27:31;;;;;;;;;;;3.30;99.90;;;;;;5055813;28;20372;-62
2021/01/25 15:29:58;;;;;;;;;;;3.30;99.90;;;;;;5055498;28;20283;-63
2021/01/25 15:32:24;;;;;;;;;;;3.20;99.90;;;;;;5055261;28;20019;-63
2021/01/25 15:34:50;;;;;;;;;;;3.00;99.90;;;;;;5054825;28;19929;-63
2021/01/25 15:37:16;;;;;;;;;;;2.90;99.90;;;;;;5054965;28;19924;-62
2021/01/25 15:39:43;;;;;;;;;;;2.90;99.90;;;;;;5054511;28;19932;-62
2021/01/25 15:42:09;;;;;;;;;;;2.80;99.90;;;;;;5056012;28;19924;-62
2021/01/25 15:44:35;;;;;;;;;;;2.80;99.90;;;;;;5055655;28;19925;-62
2021/01/25 15:47:02;;;;;;;;;;;2.80;99.90;;;;;;5055084;28;19929;-62
2021/01/25 15:49:28;;;;;;;;;;;2.70;99.90;;;;;;5055808;28;19925;-62
2021/01/25 15:51:54;;;;;;;;;;;2.70;99.90;;;;;;5055864;28;20436;-61
2021/01/25 15:54:20;;;;;;;;;;;2.70;99.90;;;;;;5055463;28;20370;-63
2021/01/25 15:56:47;;;;;;;;;;;2.80;99.90;;;;;;5054345;28;20494;-63
2021/01/25 15:59:13;;;;;;;;;;;2.80;99.90;;;;;;5054913;28;19925;-63
2021/01/25 16:01:40;;;;;;;;;;;2.80;99.90;;;;;;5054323;28;19925;-63
2021/01/25 16:04:06;;;;;;;;;;;2.80;99.90;;;;;;5054652;28;20410;-62
2021/01/25 16:06:32;;;;;;;;;;;2.80;99.90;;;;;;5055478;28;19936;-62
2021/01/25 16:08:58;;;;;;;;;;;2.80;99.90;;;;;;5055195;28;20334;-62
2021/01/25 16:11:28;;;;;;;;;;;2.80;99.90;;;;;;5062012;28;20441;-62
2021/01/25 16:13:55;;;;;;;;;;;2.80;99.90;;;;;;5055264;28;19947;-62
2021/01/25 16:16:21;;;;;;;;;;;2.80;99.90;;;;;;5055064;28;19925;-62
2021/01/25 16:18:47;;;;;;;;;;;2.70;99.90;;;;;;5054585;28;19932;-62
2021/01/25 16:21:13;;;;;;;;;;;2.70;99.90;;;;;;5054527;28;19925;-61
2021/01/25 16:23:40;;;;;;;;;;;2.60;99.90;;;;;;5054544;28;20038;-62
2021/01/25 16:26:06;;;;;;;;;;;2.60;99.90;;;;;;5054026;28;19929;-62
2021/01/25 16:28:32;;;;;;;;;;;2.60;99.90;;;;;;5053814;28;19924;-63
2021/01/25 16:30:59;;;;;;;;;;;2.60;99.90;;;;;;5055399;28;19925;-61
2021/01/25 16:33:26;;;;;;;;;;;2.70;99.90;;;;;;5058953;28;19925;-62
2021/01/25 16:35:52;;;;;;;;;;;2.70;99.90;;;;;;5054402;28;19925;-63
2021/01/25 16:38:18;;;;;;;;;;;2.70;99.90;;;;;;5054149;28;19925;-62
2021/01/25 16:40:45;;;;;;;;;;;2.80;99.90;;;;;;5053872;28;19925;-63
2021/01/25 16:43:11;;;;;;;;;;;2.80;99.90;;;;;;5054479;28;20012;-62
2021/01/25 16:45:37;;;;;;;;;;;2.80;99.90;;;;;;5054127;28;20030;-62
2021/01/25 16:48:05;;;;;;;;;;;2.90;99.90;;;;;;5054084;28;19978;-63
2021/01/25 16:50:31;;;;;;;;;;;2.90;99.90;;;;;;5056226;28;20435;-64
2021/01/25 16:52:57;;;;;;;;;;;2.90;99.90;;;;;;5057911;28;19924;-63
2021/01/25 16:55:23;;;;;;;;;;;2.90;99.90;;;;;;5057789;28;19925;-63
2021/01/25 16:57:49;;;;;;;;;;;2.90;99.90;;;;;;5057395;28;19950;-62
2021/01/25 17:00:16;;;;;;;;;;;2.90;99.90;;;;;;5058017;28;19924;-63
2021/01/25 17:02:42;;;;;;;;;;;2.90;99.90;;;;;;5057872;28;19929;-63
2021/01/25 17:05:10;;;;;;;;;;;2.90;99.90;;;;;;5057942;28;19931;-63
2021/01/25 17:10:04;;;;;;;;;;;2.90;99.90;;;;;;5016022;28;19929;-61
2021/01/25 17:12:30;;;;;;;;;;;2.90;99.90;;;;;;5017199;28;20289;-61
2021/01/25 17:14:56;;;;;;;;;;;2.80;99.90;;;;;;5017122;28;19926;-62
2021/01/25 17:17:22;;;;;;;;;;;2.80;99.90;;;;;;5017652;28;19932;-61
2021/01/25 17:19:49;;;;;;;;;;;2.70;99.90;;;;;;5016810;28;19930;-62
2021/01/25 17:22:16;;;;;;;;;;;2.70;99.90;;;;;;5017419;28;19980;-64
2021/01/25 17:24:44;;;;;;;;;;;2.60;99.90;;;;;;5016765;28;19956;-63
2021/01/25 17:27:11;;;;;;;;;;;2.60;99.90;;;;;;5017361;28;20276;-64
2021/01/25 17:29:38;;;;;;;;;;;2.50;99.90;;;;;;5016625;28;19925;-63
2021/01/25 17:32:04;;;;;;;;;;;2.50;99.90;;;;;;5017228;28;19933;-63
2021/01/25 17:34:30;;;;;;;;;;;2.40;99.90;;;;;;5016679;28;20288;-63
2021/01/25 17:36:56;;;;;;;;;;;2.40;99.90;;;;;;5016511;28;19925;-63
2021/01/25 17:39:23;;;;;;;;;;;2.40;99.90;;;;;;5016761;28;19926;-64
2021/01/25 17:41:49;;;;;;;;;;;2.50;99.90;;;;;;5016841;28;19948;-63
2021/01/25 17:44:16;;;;;;;;;;;2.40;99.90;;;;;;5016840;28;19941;-64
2021/01/25 17:46:42;;;;;;;;;;;2.30;99.90;;;;;;5016338;28;19926;-64
2021/01/25 17:49:08;;;;;;;;;;;2.30;99.90;;;;;;5017346;28;20304;-64
2021/01/25 17:51:34;;;;;;;;;;;2.40;99.90;;;;;;5018002;28;19971;-64
2021/01/25 17:54:01;;;;;;;;;;;2.30;99.90;;;;;;5017462;28;19980;-65
2021/01/25 17:56:28;;;;;;;;;;;2.40;99.90;;;;;;5017836;28;19926;-64
2021/01/25 17:58:54;;;;;;;;;;;2.40;99.90;;;;;;5016733;28;19929;-64
2021/01/25 18:01:20;;;;;;;;;;;2.40;99.90;;;;;;5015519;28;19933;-64
2021/01/25 18:03:46;;;;;;;;;;;2.50;99.90;;;;;;5016224;28;19929;-64
2021/01/25 18:06:13;;;;;;;;;;;2.50;99.90;;;;;;5017200;28;19992;-64
2021/01/25 18:08:39;;;;;;;;;;;2.60;99.90;;;;;;5016893;28;19929;-63
2021/01/25 18:11:05;;;;;;;;;;;2.60;99.90;;;;;;5017227;28;19933;-65
2021/01/25 18:13:32;;;;;;;;;;;2.60;99.90;;;;;;5016946;28;19945;-64
2021/01/25 18:15:58;;;;;;;;;;;2.60;99.90;;;;;;5017041;28;19953;-63
2021/01/25 18:18:24;;;;;;;;;;;2.60;99.90;;;;;;5017020;28;19925;-65
2021/01/25 18:20:50;;;;;;;;;;;2.60;99.90;;;;;;5016723;28;19933;-63
2021/01/25 18:23:16;;;;;;;;;;;2.50;99.90;;;;;;5016999;28;19932;-64
2021/01/25 18:25:43;;;;;;;;;;;2.60;99.90;;;;;;5016681;28;20041;-65
2021/01/25 18:28:09;;;;;;;;;;;2.50;99.90;;;;;;5016758;28;19929;-64
2021/01/25 18:30:36;;;;;;;;;;;2.40;99.90;;;;;;5016678;28;19925;-63
2021/01/25 18:33:04;;;;;;;;;;;2.30;99.90;;;;;;5016924;28;19926;-64
2021/01/25 18:35:31;;;;;;;;;;;2.40;99.90;;;;;;5017044;28;19926;-63
2021/01/25 18:37:58;;;;;;;;;;;2.40;99.90;;;;;;5016809;28;19932;-64
2021/01/25 18:40:26;;;;;;;;;;;2.40;99.90;;;;;;5016566;28;19932;-65
2021/01/25 18:42:52;;;;;;;;;;;2.30;99.90;;;;;;5016900;28;19925;-64
2021/01/25 18:45:19;;;;;;;;;;;2.20;99.90;;;;;;5016056;28;20359;-64
2021/01/25 18:47:46;;;;;;;;;;;2.20;99.90;;;;;;5016254;28;19976;-65
2021/01/25 18:50:13;;;;;;;;;;;2.20;99.90;;;;;;5016688;28;19926;-64
2021/01/25 18:52:39;;;;;;;;;;;2.20;99.90;;;;;;5016299;28;19929;-65
2021/01/25 18:55:06;;;;;;;;;;;2.10;99.90;;;;;;5016425;28;19932;-63
2021/01/25 18:57:32;;;;;;;;;;;2.20;99.90;;;;;;5016413;28;19926;-64
2021/01/25 18:59:58;;;;;;;;;;;2.20;99.90;;;;;;5016510;28;19929;-64
2021/01/25 19:02:24;;;;;;;;;;;2.20;99.90;;;;;;5016215;28;19925;-64
2021/01/25 19:04:51;;;;;;;;;;;2.20;99.90;;;;;;5016247;28;19925;-65
2021/01/25 19:07:17;;;;;;;;;;;2.10;99.90;;;;;;5016221;28;19929;-64
2021/01/25 19:09:44;;;;;;;;;;;2.10;99.90;;;;;;5016137;28;20340;-65
2021/01/25 19:12:11;;;;;;;;;;;2.10;99.90;;;;;;5015918;28;19995;-63
2021/01/25 19:14:37;;;;;;;;;;;2.10;99.90;;;;;;5016020;28;19925;-64
2021/01/25 19:17:03;;;;;;;;;;;2.20;99.90;;;;;;5015704;28;19925;-64
2021/01/25 19:19:29;;;;;;;;;;;2.20;99.90;;;;;;5015764;28;19929;-64
2021/01/25 19:21:56;;;;;;;;;;;2.20;99.90;;;;;;5015978;28;19925;-65
2021/01/25 19:24:22;;;;;;;;;;;2.20;99.90;;;;;;5015883;28;19976;-63
2021/01/25 19:26:49;;;;;;;;;;;2.20;99.90;;;;;;5015917;28;19926;-64
2021/01/25 19:29:15;;;;;;;;;;;2.20;99.90;;;;;;5015816;28;19975;-64
2021/01/25 19:31:41;;;;;;;;;;;2.20;99.90;;;;;;5015557;28;20012;-65